Time;durP1;ratioP1;P1;durP2;ratioP2;P2;SDS_P1;SDS_P2;PMS_P1;PMS_P2;Temp;Humidity;BMP_temperature;BMP_pressure;BME280_temperature;BME280_humidity;BME280_pressure;Samples;Min_cycle;Max_cycle;Signal;HPM_P1;HPM_P2
2022/03/31 00:00:40;;;;;;;27.27;22.13;;;10.30;99.90;;;;;;5033183;28;20201;-68
2022/03/31 00:03:09;;;;;;;23.30;20.20;;;10.30;99.90;;;;;;5031283;28;20183;-68
2022/03/31 00:05:36;;;;;;;25.77;21.80;;;10.30;99.90;;;;;;4993101;28;20432;-68
2022/03/31 00:08:03;;;;;;;24.90;22.30;;;10.50;99.90;;;;;;4993508;28;20447;-68
2022/03/31 00:10:33;;;;;;;32.20;24.83;;;10.50;99.90;;;;;;4993888;28;20414;-68
2022/03/31 00:13:01;;;;;;;24.30;21.63;;;10.40;99.90;;;;;;4993898;28;20782;-68
2022/03/31 00:15:28;;;;;;;25.20;20.47;;;10.30;99.90;;;;;;4993355;28;21015;-68
2022/03/31 00:17:55;;;;;;;26.90;20.60;;;10.30;99.90;;;;;;4993960;28;20470;-68
2022/03/31 00:20:20;;;;;;;25.87;21.33;;;10.30;99.90;;;;;;4993582;28;20450;-68
2022/03/31 00:22:46;;;;;;;28.13;22.07;;;10.10;99.90;;;;;;5023764;28;20992;-68
2022/03/31 00:25:12;;;;;;;27.70;21.40;;;10.00;99.90;;;;;;5032633;28;20226;-69
2022/03/31 00:27:38;;;;;;;27.87;23.57;;;10.00;99.90;;;;;;5031993;28;20176;-68
2022/03/31 00:30:06;;;;;;;21.77;18.90;;;10.00;99.90;;;;;;5033242;28;20214;-68
2022/03/31 00:32:33;;;;;;;25.63;21.43;;;10.00;99.90;;;;;;5033253;28;20474;-68
2022/03/31 00:34:59;;;;;;;26.93;22.60;;;9.90;99.90;;;;;;5032690;28;20429;-68
2022/03/31 00:37:25;;;;;;;22.83;19.00;;;9.90;99.90;;;;;;5032314;28;20408;-68
2022/03/31 00:39:50;;;;;;;27.70;21.87;;;10.00;99.90;;;;;;5032687;28;20543;-68
2022/03/31 00:42:16;;;;;;;23.83;19.13;;;10.00;99.90;;;;;;5032937;28;20262;-68
2022/03/31 00:44:43;;;;;;;23.27;18.60;;;9.90;99.90;;;;;;5032715;28;20195;-68
2022/03/31 00:47:08;;;;;;;22.40;19.40;;;9.80;99.90;;;;;;5032465;28;20167;-68
2022/03/31 00:49:34;;;;;;;23.60;20.17;;;9.80;99.90;;;;;;5032892;28;20739;-68
2022/03/31 00:52:00;;;;;;;25.00;20.33;;;9.80;99.90;;;;;;5030530;28;20250;-68
2022/03/31 00:54:27;;;;;;;22.30;19.90;;;9.80;99.90;;;;;;5012705;28;20222;-68
2022/03/31 00:56:53;;;;;;;23.77;18.77;;;9.60;99.90;;;;;;5012680;28;20801;-68
2022/03/31 00:59:19;;;;;;;20.77;18.10;;;9.40;99.90;;;;;;5013079;28;20451;-68
2022/03/31 01:01:46;;;;;;;22.43;18.60;;;9.40;99.90;;;;;;5010863;28;20453;-69
2022/03/31 01:04:13;;;;;;;21.00;18.53;;;9.50;99.90;;;;;;5012394;28;20441;-68
2022/03/31 01:06:40;;;;;;;23.17;17.30;;;9.60;99.90;;;;;;5012257;28;20959;-68
2022/03/31 01:09:06;;;;;;;21.17;18.90;;;9.60;99.90;;;;;;5012893;28;20418;-68
2022/03/31 01:11:32;;;;;;;18.70;16.50;;;9.70;99.90;;;;;;5011392;28;20838;-68
2022/03/31 01:13:58;;;;;;;19.90;17.40;;;9.70;99.90;;;;;;5012803;28;20626;-68
2022/03/31 01:16:24;;;;;;;22.20;19.00;;;9.80;99.90;;;;;;5021443;28;20468;-68
2022/03/31 01:18:53;;;;;;;18.50;16.27;;;9.80;99.90;;;;;;5035851;28;20406;-68
2022/03/31 01:21:19;;;;;;;19.93;16.50;;;9.70;99.90;;;;;;5023290;28;20512;-68
2022/03/31 01:23:45;;;;;;;19.10;16.17;;;9.50;99.90;;;;;;5035882;28;21094;-68
2022/03/31 01:26:12;;;;;;;22.13;18.60;;;9.70;99.90;;;;;;5036026;28;20162;-68
2022/03/31 01:28:42;;;;;;;20.10;17.60;;;9.70;99.90;;;;;;5035797;28;20462;-68
2022/03/31 01:31:09;;;;;;;17.33;15.50;;;9.80;99.90;;;;;;5036082;28;20398;-68
2022/03/31 01:33:36;;;;;;;17.33;15.47;;;9.90;99.90;;;;;;5035594;28;20944;-69
2022/03/31 01:36:04;;;;;;;18.90;15.90;;;9.80;99.90;;;;;;5035677;28;20434;-68
2022/03/31 01:38:30;;;;;;;16.17;13.63;;;10.00;99.90;;;;;;5035147;28;20778;-67
2022/03/31 01:40:56;;;;;;;18.27;15.77;;;10.00;99.90;;;;;;5035766;28;20474;-68
2022/03/31 01:43:21;;;;;;;17.47;15.67;;;10.10;99.90;;;;;;5035440;28;20450;-68
2022/03/31 01:45:49;;;;;;;16.90;14.70;;;10.00;99.90;;;;;;5035653;28;20240;-68
2022/03/31 01:48:16;;;;;;;20.50;18.30;;;10.10;99.90;;;;;;5035782;28;20183;-68
2022/03/31 01:50:42;;;;;;;17.63;15.83;;;10.00;99.90;;;;;;5035826;28;20417;-68
2022/03/31 01:53:08;;;;;;;18.87;16.93;;;9.90;99.90;;;;;;5034919;28;20413;-68
2022/03/31 01:55:34;;;;;;;19.73;15.37;;;9.90;99.90;;;;;;5035276;28;20491;-68
2022/03/31 01:58:00;;;;;;;17.73;15.77;;;9.90;99.90;;;;;;5018580;28;20416;-68
2022/03/31 02:00:25;;;;;;;19.00;16.90;;;9.90;99.90;;;;;;5015762;28;20214;-68
2022/03/31 02:02:51;;;;;;;19.97;16.37;;;9.90;99.90;;;;;;5015416;28;20201;-67
2022/03/31 02:05:16;;;;;;;17.73;15.93;;;9.80;99.90;;;;;;5013584;28;20210;-69
2022/03/31 02:07:42;;;;;;;18.13;15.00;;;9.80;99.90;;;;;;5014740;28;20265;-68
2022/03/31 02:10:09;;;;;;;17.97;16.07;;;9.80;99.90;;;;;;5015520;28;20679;-67
2022/03/31 02:12:35;;;;;;;20.03;16.23;;;9.70;99.90;;;;;;5015900;28;20272;-68
2022/03/31 02:15:02;;;;;;;18.77;16.87;;;9.60;99.90;;;;;;5015151;28;20485;-67
2022/03/31 02:17:28;;;;;;;19.30;15.80;;;9.70;99.90;;;;;;5015374;28;20578;-68
2022/03/31 02:19:53;;;;;;;18.60;15.93;;;9.70;99.90;;;;;;5014958;28;20454;-68
2022/03/31 02:22:19;;;;;;;21.17;17.50;;;9.70;99.90;;;;;;5024498;28;20198;-68
2022/03/31 02:24:44;;;;;;;19.77;15.53;;;9.50;99.90;;;;;;5034663;28;20203;-67
2022/03/31 02:27:11;;;;;;;17.67;15.77;;;9.50;99.90;;;;;;5033938;28;20650;-67
2022/03/31 02:29:38;;;;;;;17.83;15.97;;;9.50;99.90;;;;;;5035726;28;20528;-67
2022/03/31 02:32:04;;;;;;;18.67;16.60;;;9.40;99.90;;;;;;5034528;28;20875;-68
2022/03/31 02:34:30;;;;;;;18.37;16.10;;;9.40;99.90;;;;;;5034781;28;20435;-67
2022/03/31 02:36:56;;;;;;;20.40;18.20;;;9.40;99.90;;;;;;5034071;28;20785;-67
2022/03/31 02:39:22;;;;;;;18.37;16.47;;;9.50;99.90;;;;;;5034499;28;20197;-68
2022/03/31 02:41:47;;;;;;;17.87;15.97;;;9.50;99.90;;;;;;5034398;28;20163;-68
2022/03/31 02:44:14;;;;;;;17.40;15.40;;;9.40;99.90;;;;;;5034355;28;20655;-68
2022/03/31 02:46:39;;;;;;;17.27;15.53;;;9.50;99.90;;;;;;5035005;28;20178;-68
2022/03/31 02:49:05;;;;;;;18.13;15.73;;;9.50;99.90;;;;;;5034206;28;20412;-68
2022/03/31 02:51:31;;;;;;;17.87;15.13;;;9.40;99.90;;;;;;5034014;28;20328;-68
2022/03/31 02:56:41;;;;;;;21.60;17.40;;;9.40;99.90;;;;;;5034188;28;20162;-69
2022/03/31 02:59:09;;;;;;;18.60;15.33;;;8.90;99.90;;;;;;5034222;28;20461;-68
2022/03/31 03:01:35;;;;;;;19.97;17.90;;;8.80;99.90;;;;;;5031635;28;20173;-69
2022/03/31 03:04:01;;;;;;;22.33;19.50;;;8.60;99.90;;;;;;5014276;28;20429;-68
2022/03/31 03:06:26;;;;;;;20.27;17.80;;;8.60;99.90;;;;;;5014343;28;20193;-68
2022/03/31 03:08:54;;;;;;;19.03;16.57;;;8.50;99.90;;;;;;5013923;28;20168;-68
2022/03/31 03:11:20;;;;;;;18.33;16.40;;;8.20;99.90;;;;;;5014330;28;20178;-68
2022/03/31 03:13:46;;;;;;;19.57;17.53;;;8.00;99.90;;;;;;5013976;28;20923;-68
2022/03/31 03:16:12;;;;;;;22.37;18.77;;;8.00;99.90;;;;;;5014213;28;20171;-68
2022/03/31 03:18:39;;;;;;;20.10;17.93;;;8.00;99.90;;;;;;5012689;28;20452;-68
2022/03/31 03:21:07;;;;;;;24.33;19.83;;;8.00;99.90;;;;;;5013195;28;20446;-70
2022/03/31 03:23:34;;;;;;;19.30;17.30;;;8.00;99.90;;;;;;5032832;28;20402;-68
2022/03/31 03:26:02;;;;;;;20.67;18.30;;;8.10;99.90;;;;;;5033813;28;20411;-68
2022/03/31 03:28:29;;;;;;;20.40;18.07;;;8.10;99.90;;;;;;5033925;28;20716;-69
2022/03/31 03:30:55;;;;;;;23.03;20.23;;;8.10;99.90;;;;;;5033892;28;20946;-68
2022/03/31 03:33:21;;;;;;;20.97;18.87;;;8.20;99.90;;;;;;5033661;28;20416;-68
2022/03/31 03:35:46;;;;;;;22.97;20.13;;;8.10;99.90;;;;;;5033413;28;20265;-68
2022/03/31 03:38:14;;;;;;;19.97;17.77;;;8.00;99.90;;;;;;5033025;28;20250;-68
2022/03/31 03:40:40;;;;;;;21.37;19.10;;;7.80;99.90;;;;;;5033349;28;20200;-69
2022/03/31 03:43:06;;;;;;;20.80;18.60;;;7.80;99.90;;;;;;5033539;28;20759;-68
2022/03/31 03:45:32;;;;;;;24.00;21.40;;;7.80;99.90;;;;;;5033228;28;20434;-68
2022/03/31 03:47:58;;;;;;;22.97;19.50;;;8.10;99.90;;;;;;5032926;28;20207;-68
2022/03/31 03:50:25;;;;;;;24.03;19.73;;;8.20;99.90;;;;;;5033300;28;20670;-69
2022/03/31 03:52:51;;;;;;;19.77;17.87;;;8.30;99.90;;;;;;5033057;28;20791;-67
2022/03/31 03:55:17;;;;;;;18.20;16.40;;;8.10;99.90;;;;;;5033226;28;20951;-67
2022/03/31 03:57:43;;;;;;;19.10;17.17;;;7.80;99.90;;;;;;5033917;28;20415;-67
2022/03/31 04:00:09;;;;;;;21.20;19.00;;;7.70;99.90;;;;;;5034290;28;20207;-67
2022/03/31 04:02:35;;;;;;;19.30;17.30;;;7.80;99.90;;;;;;5033526;28;20277;-67
2022/03/31 04:05:01;;;;;;;21.60;18.27;;;7.90;99.90;;;;;;5032884;28;20435;-67
2022/03/31 04:07:27;;;;;;;20.57;18.47;;;7.80;99.90;;;;;;5033080;28;20411;-67
2022/03/31 04:09:52;;;;;;;20.87;18.00;;;7.80;99.90;;;;;;5031805;28;20491;-67
2022/03/31 04:12:18;;;;;;;19.60;17.67;;;7.50;99.90;;;;;;5032982;28;20721;-67
2022/03/31 04:14:44;;;;;;;20.33;17.33;;;7.50;99.90;;;;;;5033150;28;20194;-67
2022/03/31 04:17:09;;;;;;;22.03;18.73;;;7.60;99.90;;;;;;5033096;28;20180;-68
2022/03/31 04:19:35;;;;;;;19.37;17.37;;;7.70;99.90;;;;;;5033043;28;20200;-68
2022/03/31 04:22:00;;;;;;;20.43;18.43;;;7.60;99.90;;;;;;5031573;28;20207;-67
2022/03/31 04:24:26;;;;;;;22.70;19.80;;;7.40;99.90;;;;;;5048988;22;20261;-69
2022/03/31 04:26:52;;;;;;;20.03;17.93;;;7.40;99.90;;;;;;5022329;28;20196;-68
2022/03/31 04:29:17;;;;;;;23.43;20.20;;;7.30;99.90;;;;;;5031499;28;20611;-67
2022/03/31 04:31:43;;;;;;;22.43;18.73;;;7.20;99.90;;;;;;5025987;28;20738;-67
2022/03/31 04:34:18;;;;;;;21.70;19.30;;;7.30;99.90;;;;;;5031270;28;20194;-68
2022/03/31 04:36:44;;;;;;;21.13;18.93;;;7.20;99.90;;;;;;5012166;28;20157;-67
2022/03/31 04:39:12;;;;;;;23.13;19.30;;;7.10;99.90;;;;;;5011584;28;20460;-66
2022/03/31 04:41:41;;;;;;;23.90;21.17;;;7.10;99.90;;;;;;5010767;28;20469;-66
2022/03/31 04:44:07;;;;;;;25.17;20.03;;;7.20;99.90;;;;;;5011851;28;20513;-66
2022/03/31 04:46:33;;;;;;;23.17;20.03;;;7.20;99.90;;;;;;5011621;28;20508;-66
2022/03/31 04:48:59;;;;;;;24.20;21.73;;;7.10;99.90;;;;;;5011405;28;20422;-66
2022/03/31 04:51:25;;;;;;;23.00;19.57;;;7.20;99.90;;;;;;4997994;28;20406;-67
2022/03/31 04:53:51;;;;;;;22.47;19.90;;;7.20;99.90;;;;;;5014989;28;20477;-65
2022/03/31 04:56:17;;;;;;;23.80;21.40;;;7.20;99.90;;;;;;5014607;28;20786;-66
2022/03/31 04:58:44;;;;;;;22.53;19.93;;;7.30;99.90;;;;;;5014880;28;20411;-66
2022/03/31 05:01:10;;;;;;;22.27;19.80;;;7.40;99.90;;;;;;5031529;28;20176;-67
2022/03/31 05:03:39;;;;;;;21.07;18.87;;;7.20;99.90;;;;;;5015020;28;20468;-67
2022/03/31 05:06:06;;;;;;;22.00;19.47;;;7.30;99.90;;;;;;5016514;28;20441;-67
2022/03/31 05:08:33;;;;;;;21.33;18.97;;;7.30;99.90;;;;;;5016330;28;20912;-67
2022/03/31 05:10:58;;;;;;;21.77;19.27;;;7.40;99.90;;;;;;5014217;28;20425;-67
2022/03/31 05:13:24;;;;;;;21.40;18.10;;;7.40;99.90;;;;;;5016257;28;20502;-67
2022/03/31 05:15:51;;;;;;;22.57;19.77;;;7.40;99.90;;;;;;5016063;28;20201;-67
2022/03/31 05:18:16;;;;;;;19.83;17.67;;;7.40;99.90;;;;;;5016079;28;20432;-67
2022/03/31 05:20:43;;;;;;;20.37;18.00;;;7.30;99.90;;;;;;5016080;28;20486;-67
2022/03/31 05:23:09;;;;;;;22.97;19.47;;;7.20;99.90;;;;;;5014252;28;20660;-65
2022/03/31 05:25:36;;;;;;;21.03;18.90;;;7.30;99.90;;;;;;5016514;28;21025;-67
2022/03/31 05:28:01;;;;;;;22.33;19.93;;;7.50;99.90;;;;;;5016464;28;20411;-66
2022/03/31 05:30:27;;;;;;;24.10;21.50;;;7.50;99.90;;;;;;5014820;28;20415;-66
2022/03/31 05:32:53;;;;;;;20.80;18.60;;;7.60;99.90;;;;;;5014907;28;20184;-67
2022/03/31 05:35:20;;;;;;;19.80;17.70;;;7.80;99.90;;;;;;5014532;28;20201;-67
2022/03/31 05:37:47;;;;;;;22.50;19.23;;;7.90;99.90;;;;;;4997804;28;20901;-67
2022/03/31 05:40:14;;;;;;;21.43;19.13;;;7.60;99.90;;;;;;5015433;28;20446;-67
2022/03/31 05:42:40;;;;;;;21.67;19.07;;;7.50;99.90;;;;;;5030655;28;20495;-67
2022/03/31 05:45:09;;;;;;;20.63;18.47;;;7.40;99.90;;;;;;5030275;28;20577;-66
2022/03/31 05:47:36;;;;;;;22.37;19.47;;;7.40;99.90;;;;;;5013905;28;20923;-66
2022/03/31 05:50:03;;;;;;;21.27;18.70;;;7.60;99.90;;;;;;5030679;28;20422;-67
2022/03/31 05:52:29;;;;;;;18.57;16.73;;;7.50;99.90;;;;;;5013522;28;20433;-67
2022/03/31 05:54:55;;;;;;;28.03;20.50;;;7.50;99.90;;;;;;5014119;28;20423;-66
2022/03/31 05:57:20;;;;;;;21.20;18.70;;;7.40;99.90;;;;;;5030158;28;20183;-65
2022/03/31 05:59:46;;;;;;;26.43;20.57;;;7.40;99.90;;;;;;5014964;28;20195;-67
2022/03/31 06:02:11;;;;;;;20.80;18.70;;;7.40;99.90;;;;;;5012853;28;20183;-67
2022/03/31 06:04:38;;;;;;;21.73;19.30;;;7.40;99.90;;;;;;5015096;28;20611;-67
2022/03/31 06:07:05;;;;;;;20.37;18.17;;;7.50;99.90;;;;;;5029229;28;20181;-67
2022/03/31 06:09:31;;;;;;;23.00;19.20;;;7.70;99.90;;;;;;5014145;28;20874;-67
2022/03/31 06:11:56;;;;;;;21.07;18.87;;;7.70;99.90;;;;;;5030080;28;20411;-66
2022/03/31 06:14:22;;;;;;;19.97;17.93;;;7.40;99.90;;;;;;5015025;28;20184;-67
2022/03/31 06:16:49;;;;;;;22.37;19.90;;;7.30;99.90;;;;;;5013230;28;20214;-67
2022/03/31 06:19:15;;;;;;;22.07;19.73;;;7.40;99.90;;;;;;5013604;28;20634;-67
2022/03/31 06:21:42;;;;;;;24.17;19.27;;;7.40;99.90;;;;;;5028208;28;20439;-67
2022/03/31 06:24:08;;;;;;;21.50;19.20;;;7.40;99.90;;;;;;5029838;28;20416;-67
2022/03/31 06:26:34;;;;;;;22.00;19.50;;;7.30;99.90;;;;;;5013331;28;20538;-67
2022/03/31 06:29:00;;;;;;;23.50;19.90;;;7.00;99.90;;;;;;5013267;28;20551;-67
2022/03/31 06:31:26;;;;;;;21.67;19.03;;;6.90;99.90;;;;;;5029760;28;20422;-67
2022/03/31 06:33:52;;;;;;;23.80;21.40;;;7.00;99.90;;;;;;5013728;28;20880;-67
2022/03/31 06:36:18;;;;;;;23.37;20.87;;;7.40;99.90;;;;;;5013631;28;20497;-66
2022/03/31 06:38:44;;;;;;;23.20;19.60;;;7.60;99.90;;;;;;5029925;28;20416;-66
2022/03/31 06:41:17;;;;;;;24.30;21.67;;;7.70;99.90;;;;;;5013444;28;20456;-65
2022/03/31 06:43:48;;;;;;;21.47;19.13;;;7.70;99.90;;;;;;5014236;28;20267;-66
2022/03/31 06:46:14;;;;;;;23.20;20.70;;;7.90;99.90;;;;;;5029601;28;20435;-66
2022/03/31 06:48:42;;;;;;;21.63;19.30;;;7.80;99.90;;;;;;5013061;28;20439;-66
2022/03/31 06:51:09;;;;;;;22.80;20.30;;;7.60;99.90;;;;;;5029653;28;20468;-67
2022/03/31 06:53:38;;;;;;;20.90;18.43;;;7.50;99.90;;;;;;5013132;28;20407;-66
2022/03/31 06:56:08;;;;;;;22.17;19.83;;;7.90;99.90;;;;;;5014839;28;20437;-67
2022/03/31 06:58:34;;;;;;;21.47;19.13;;;8.20;99.90;;;;;;5013366;28;20411;-67
2022/03/31 07:01:01;;;;;;;22.63;20.03;;;8.40;99.90;;;;;;5013540;28;20516;-67
2022/03/31 07:03:27;;;;;;;22.67;19.40;;;8.40;99.90;;;;;;5014844;28;20458;-67
2022/03/31 07:05:54;;;;;;;21.20;19.00;;;8.50;99.90;;;;;;5012889;28;20431;-67
2022/03/31 07:08:19;;;;;;;22.30;19.90;;;8.10;99.90;;;;;;5031289;28;20418;-66
2022/03/31 07:10:45;;;;;;;25.40;21.33;;;7.90;99.90;;;;;;5015094;28;21003;-67
2022/03/31 07:13:11;;;;;;;23.10;19.50;;;8.00;99.90;;;;;;5014228;28;20178;-67
2022/03/31 07:15:37;;;;;;;22.87;20.57;;;8.40;99.90;;;;;;5015306;28;20447;-66
2022/03/31 07:18:04;;;;;;;20.23;18.03;;;8.60;99.90;;;;;;5011918;28;20579;-67
2022/03/31 07:20:34;;;;;;;21.40;19.30;;;8.40;99.90;;;;;;4985652;28;20207;-67
2022/03/31 07:23:00;;;;;;;22.33;18.47;;;8.10;99.90;;;;;;5005424;28;20484;-67
2022/03/31 07:25:26;;;;;;;21.27;18.93;;;8.30;99.90;;;;;;5012037;28;20577;-67
2022/03/31 07:27:53;;;;;;;23.03;20.60;;;8.60;99.90;;;;;;5012348;28;20413;-67
2022/03/31 07:30:21;;;;;;;20.90;18.80;;;8.90;99.90;;;;;;5013508;28;20441;-67
2022/03/31 07:32:51;;;;;;;21.00;18.80;;;8.40;99.90;;;;;;5012839;28;20433;-67
2022/03/31 07:35:17;;;;;;;21.77;19.50;;;8.60;99.90;;;;;;5028861;28;20483;-67
2022/03/31 07:37:43;;;;;;;22.20;19.90;;;8.40;99.90;;;;;;5013739;28;20411;-67
2022/03/31 07:40:09;;;;;;;20.73;18.60;;;8.40;99.90;;;;;;5012567;28;20453;-67
2022/03/31 07:42:35;;;;;;;22.83;20.43;;;8.60;99.90;;;;;;5012156;28;20261;-67
2022/03/31 07:45:00;;;;;;;23.27;20.83;;;8.70;99.90;;;;;;5012229;28;20481;-66
2022/03/31 07:47:26;;;;;;;20.93;18.57;;;8.50;99.90;;;;;;5012131;28;20193;-66
2022/03/31 07:49:52;;;;;;;22.33;19.93;;;8.30;99.90;;;;;;5012152;28;20173;-66
2022/03/31 07:52:19;;;;;;;24.10;20.33;;;8.50;99.90;;;;;;5013463;28;20499;-66
2022/03/31 07:54:45;;;;;;;22.97;19.63;;;8.80;99.90;;;;;;5013351;28;20434;-66
2022/03/31 07:57:11;;;;;;;23.20;20.73;;;8.60;99.90;;;;;;5012249;28;20419;-66
2022/03/31 07:59:36;;;;;;;21.97;19.57;;;8.70;99.90;;;;;;5028722;28;20196;-66
2022/03/31 08:02:02;;;;;;;24.60;20.60;;;9.00;99.90;;;;;;5011857;28;20187;-67
2022/03/31 08:04:28;;;;;;;23.70;18.10;;;9.30;99.90;;;;;;5013632;28;20178;-66
2022/03/31 08:06:55;;;;;;;19.83;17.80;;;9.30;99.90;;;;;;5027735;28;20418;-66
2022/03/31 08:09:23;;;;;;;23.20;19.70;;;9.30;99.90;;;;;;5013687;28;20426;-66
2022/03/31 08:11:49;;;;;;;23.40;21.00;;;9.30;99.90;;;;;;4995832;28;20453;-67
2022/03/31 08:14:22;;;;;;;21.40;19.13;;;9.10;99.90;;;;;;4995480;28;20501;-67
2022/03/31 08:16:51;;;;;;;23.10;18.87;;;8.80;99.90;;;;;;5013289;28;20928;-66
2022/03/31 08:19:18;;;;;;;21.93;19.63;;;8.80;99.90;;;;;;5011437;28;20447;-66
2022/03/31 08:21:45;;;;;;;23.40;20.90;;;8.90;99.90;;;;;;5010510;28;20775;-67
2022/03/31 08:24:14;;;;;;;25.50;22.70;;;8.60;99.90;;;;;;5012447;28;20419;-66
2022/03/31 08:26:41;;;;;;;25.17;22.47;;;8.70;99.90;;;;;;5011416;28;20435;-66
2022/03/31 08:29:08;;;;;;;22.37;19.70;;;8.70;99.90;;;;;;5011802;28;20413;-67
2022/03/31 08:31:35;;;;;;;28.93;24.43;;;8.50;99.90;;;;;;5028049;28;20479;-67
2022/03/31 08:34:01;;;;;;;25.57;22.30;;;8.60;99.90;;;;;;5027956;28;20410;-67
2022/03/31 08:36:27;;;;;;;25.63;21.63;;;8.80;99.90;;;;;;5026666;28;20615;-66
2022/03/31 08:38:53;;;;;;;23.57;21.13;;;8.90;99.90;;;;;;5027697;28;20484;-66
2022/03/31 08:41:21;;;;;;;24.27;21.77;;;8.90;99.90;;;;;;5027820;28;20184;-66
2022/03/31 08:43:47;;;;;;;22.63;20.30;;;9.20;99.90;;;;;;5012739;28;20164;-67
2022/03/31 08:46:13;;;;;;;25.43;22.20;;;9.00;99.90;;;;;;5011375;28;20443;-66
2022/03/31 08:48:39;;;;;;;24.60;21.90;;;8.90;99.90;;;;;;5011634;28;20202;-66
2022/03/31 08:51:05;;;;;;;28.17;23.93;;;8.60;99.90;;;;;;5011154;28;20413;-67
2022/03/31 08:53:32;;;;;;;23.40;21.00;;;8.90;99.90;;;;;;5013029;28;20415;-66
2022/03/31 08:55:58;;;;;;;27.17;24.17;;;9.20;99.90;;;;;;5028135;28;20265;-66
2022/03/31 08:58:25;;;;;;;24.50;20.53;;;9.60;99.90;;;;;;5027142;28;20431;-66
2022/03/31 09:00:50;;;;;;;23.33;20.60;;;9.70;99.90;;;;;;5011585;28;20447;-66
2022/03/31 09:03:17;;;;;;;23.80;20.97;;;10.10;99.90;;;;;;5011543;28;20482;-66
2022/03/31 09:05:54;;;;;;;25.33;21.57;;;10.30;99.90;;;;;;5026618;28;20299;-66
2022/03/31 09:08:20;;;;;;;26.10;23.30;;;10.50;99.90;;;;;;5004113;28;20440;-67
2022/03/31 09:10:52;;;;;;;24.03;21.50;;;10.00;99.90;;;;;;5010846;28;20423;-67
2022/03/31 09:13:22;;;;;;;27.70;21.20;;;9.90;99.90;;;;;;5012586;28;20617;-67
2022/03/31 09:16:02;;;;;;;28.40;21.50;;;10.00;99.90;;;;;;5011490;28;20513;-65
2022/03/31 09:18:29;;;;;;;25.67;22.70;;;9.80;99.90;;;;;;5010699;28;20496;-67
2022/03/31 09:20:57;;;;;;;28.03;24.73;;;9.60;99.90;;;;;;5011199;28;20451;-67
2022/03/31 09:23:29;;;;;;;22.67;20.23;;;9.80;99.90;;;;;;5009978;28;20490;-67
2022/03/31 09:26:08;;;;;;;22.67;20.37;;;9.40;99.90;;;;;;5011151;28;20507;-66
2022/03/31 09:28:36;;;;;;;26.30;22.60;;;9.40;99.90;;;;;;5027451;28;20912;-64
2022/03/31 09:31:03;;;;;;;24.90;22.27;;;9.50;99.90;;;;;;5012483;28;20849;-65
2022/03/31 09:33:34;;;;;;;24.40;21.27;;;9.40;99.90;;;;;;5012458;28;20422;-66
2022/03/31 09:36:14;;;;;;;23.83;21.40;;;9.40;99.90;;;;;;5012935;28;20505;-66
2022/03/31 09:38:45;;;;;;;27.80;22.40;;;9.50;99.90;;;;;;5030743;28;20835;-66
2022/03/31 09:41:17;;;;;;;22.43;19.50;;;9.50;99.90;;;;;;5030816;28;20479;-66
2022/03/31 09:43:44;;;;;;;22.10;19.80;;;10.20;99.90;;;;;;5030849;28;20426;-66
2022/03/31 09:46:33;;;;;;;25.07;21.77;;;10.70;99.90;;;;;;5014394;28;20459;-66
2022/03/31 09:49:11;;;;;;;23.47;20.30;;;10.80;99.90;;;;;;5030467;28;20410;-67
2022/03/31 09:51:37;;;;;;;28.10;21.83;;;10.80;99.90;;;;;;5015827;28;20440;-66
2022/03/31 09:54:04;;;;;;;23.40;20.90;;;10.80;99.90;;;;;;5029980;28;20419;-67
2022/03/31 09:56:38;;;;;;;23.70;21.07;;;11.20;99.90;;;;;;5015337;28;20422;-66
2022/03/31 09:59:07;;;;;;;23.57;21.17;;;11.10;99.90;;;;;;5015873;28;20418;-66
2022/03/31 10:01:33;;;;;;;21.90;19.40;;;11.20;99.90;;;;;;5030495;28;20536;-67
2022/03/31 10:03:59;;;;;;;22.80;20.37;;;11.30;99.90;;;;;;5014671;28;20410;-67
2022/03/31 10:06:25;;;;;;;25.40;21.20;;;11.20;99.90;;;;;;4997378;28;20442;-67
2022/03/31 10:08:51;;;;;;;24.03;21.53;;;11.40;99.90;;;;;;5014818;28;20167;-67
2022/03/31 10:11:23;;;;;;;23.50;20.97;;;12.00;99.90;;;;;;5010883;28;20438;-67
2022/03/31 10:14:07;;;;;;;24.00;21.30;;;12.30;99.90;;;;;;5022472;28;20555;-67
2022/03/31 10:16:53;;;;;;;25.67;23.07;;;12.40;99.90;;;;;;5015191;28;20431;-67
2022/03/31 10:19:28;;;;;;;23.63;21.23;;;12.30;99.90;;;;;;5015106;28;20518;-67
2022/03/31 10:25:11;;;;;;;24.80;22.13;;;12.40;99.90;;;;;;5014779;28;20817;-67
2022/03/31 10:30:13;;;;;;;30.70;22.60;;;12.40;99.90;;;;;;5052116;28;20461;-67
2022/03/31 10:33:01;;;;;;;22.37;19.93;;;12.20;99.90;;;;;;5053711;28;20417;-68
2022/03/31 10:35:36;;;;;;;24.70;20.80;;;12.10;99.90;;;;;;5036965;28;20408;-69
2022/03/31 10:38:33;;;;;;;24.57;21.97;;;12.20;99.90;;;;;;5053452;28;20910;-68
2022/03/31 10:41:06;;;;;;;21.90;19.60;;;12.30;99.90;;;;;;5038958;28;20467;-68
2022/03/31 10:43:33;;;;;;;23.90;19.70;;;12.40;99.90;;;;;;5020101;28;20413;-68
2022/03/31 10:46:01;;;;;;;23.67;21.17;;;12.60;99.90;;;;;;5054813;28;20468;-68
2022/03/31 10:48:31;;;;;;;24.33;21.83;;;12.80;99.90;;;;;;5036596;28;20432;-69
2022/03/31 10:51:08;;;;;;;23.67;21.00;;;12.40;99.90;;;;;;5019987;28;20413;-69
2022/03/31 10:53:36;;;;;;;25.03;22.33;;;12.10;99.90;;;;;;5036894;28;20390;-68
2022/03/31 10:56:14;;;;;;;24.10;21.50;;;11.70;99.90;;;;;;5036956;28;20402;-69
2022/03/31 10:58:41;;;;;;;24.23;21.10;;;12.00;99.90;;;;;;5021120;28;20429;-68
2022/03/31 11:01:07;;;;;;;23.17;20.10;;;11.80;99.90;;;;;;5020442;28;20856;-69
2022/03/31 11:03:33;;;;;;;23.23;20.83;;;11.60;99.90;;;;;;5036942;28;20438;-69
2022/03/31 11:06:05;;;;;;;25.53;22.10;;;11.70;99.90;;;;;;5052847;28;20547;-70
2022/03/31 11:08:43;;;;;;;26.40;23.47;;;12.30;99.90;;;;;;5017998;28;20426;-67
2022/03/31 11:11:08;;;;;;;24.60;21.97;;;12.50;99.90;;;;;;5016907;28;20392;-68
2022/03/31 11:13:35;;;;;;;25.97;22.47;;;12.60;99.90;;;;;;5034085;28;20400;-68
2022/03/31 11:16:01;;;;;;;22.83;20.40;;;12.90;99.90;;;;;;5016582;28;20560;-68
2022/03/31 11:18:27;;;;;;;24.33;21.70;;;12.40;99.90;;;;;;5000148;28;20429;-68
2022/03/31 11:20:58;;;;;;;23.03;20.53;;;12.40;99.90;;;;;;5015891;28;20198;-68
2022/03/31 11:23:25;;;;;;;26.43;23.63;;;12.50;99.90;;;;;;5026244;28;20433;-68
2022/03/31 11:25:52;;;;;;;25.60;22.80;;;12.70;99.90;;;;;;5054025;28;20462;-68
2022/03/31 11:28:17;;;;;;;24.43;21.77;;;12.70;99.90;;;;;;5035527;28;21024;-68
2022/03/31 11:30:43;;;;;;;25.23;21.63;;;12.40;99.90;;;;;;5002289;28;20498;-68
2022/03/31 11:33:10;;;;;;;27.40;24.53;;;12.30;99.90;;;;;;5052957;28;20184;-68
2022/03/31 11:35:36;;;;;;;24.93;22.10;;;12.50;99.90;;;;;;5052752;28;20411;-68
2022/03/31 11:38:11;;;;;;;26.47;23.60;;;12.10;99.90;;;;;;5034759;28;20507;-68
2022/03/31 11:40:40;;;;;;;25.20;21.07;;;11.90;99.90;;;;;;5034922;28;20429;-68
2022/03/31 11:43:08;;;;;;;25.93;23.23;;;11.90;99.90;;;;;;5052491;28;20411;-68
2022/03/31 11:45:35;;;;;;;29.67;23.97;;;11.30;99.90;;;;;;5052844;28;20433;-68
2022/03/31 11:48:11;;;;;;;27.80;23.50;;;11.60;99.90;;;;;;5034962;28;20813;-68
2022/03/31 11:50:51;;;;;;;25.53;22.93;;;11.80;99.90;;;;;;5018921;28;20410;-68
2022/03/31 11:53:24;;;;;;;25.73;23.00;;;11.90;99.90;;;;;;5051915;28;20419;-68
2022/03/31 11:55:57;;;;;;;26.13;23.50;;;12.00;99.90;;;;;;5034609;28;20507;-68
2022/03/31 11:58:23;;;;;;;29.23;24.87;;;11.90;99.90;;;;;;5052350;28;20428;-68
2022/03/31 12:00:50;;;;;;;25.77;23.20;;;11.40;99.90;;;;;;5051314;28;20544;-68
2022/03/31 12:03:17;;;;;;;23.83;21.40;;;11.30;99.90;;;;;;5034942;28;20554;-68
2022/03/31 12:05:53;;;;;;;24.13;21.53;;;11.50;99.90;;;;;;5018269;28;20398;-68
2022/03/31 12:08:19;;;;;;;25.50;22.90;;;11.50;99.90;;;;;;5034370;28;20772;-68
2022/03/31 12:10:49;;;;;;;24.17;21.73;;;11.80;99.90;;;;;;5018459;28;20433;-68
2022/03/31 12:13:14;;;;;;;26.23;22.47;;;11.90;99.90;;;;;;5017882;28;20413;-68
2022/03/31 12:15:41;;;;;;;23.03;20.73;;;11.90;99.90;;;;;;5034683;28;20418;-68
2022/03/31 12:18:11;;;;;;;22.10;19.50;;;12.10;99.90;;;;;;5001849;28;20295;-67
2022/03/31 12:20:37;;;;;;;28.63;22.63;;;12.00;99.90;;;;;;5035159;28;21048;-68
2022/03/31 12:23:15;;;;;;;22.30;19.90;;;12.10;99.90;;;;;;5016714;28;20420;-68
2022/03/31 12:25:41;;;;;;;23.97;21.33;;;12.00;99.90;;;;;;5034432;28;20940;-68
2022/03/31 12:28:08;;;;;;;25.03;21.17;;;11.50;99.90;;;;;;4995761;28;1102290;-68
2022/03/31 12:30:38;;;;;;;24.77;20.87;;;11.90;99.90;;;;;;5053145;28;20664;-69
2022/03/31 12:33:04;;;;;;;23.17;20.40;;;12.40;99.90;;;;;;5052909;28;20408;-68
2022/03/31 12:35:31;;;;;;;25.13;22.43;;;12.60;99.90;;;;;;5035526;28;20504;-69
2022/03/31 12:37:56;;;;;;;23.60;21.00;;;12.50;99.90;;;;;;5034650;28;20166;-69
2022/03/31 12:40:25;;;;;;;25.50;22.63;;;12.80;99.90;;;;;;5018337;28;20464;-68
2022/03/31 12:42:57;;;;;;;27.17;24.10;;;12.70;99.90;;;;;;5035188;28;20162;-68